createdAt,value
2018-06-14T00:00:18.308Z,76.87
2018-06-14T00:02:50.684Z,76.46
2018-06-14T00:05:21.391Z,76.72
2018-06-14T00:07:51.295Z,77.03
2018-06-14T00:10:21.040Z,76.78
2018-06-14T00:12:55.899Z,76.87
2018-06-14T00:15:26.324Z,76.85
2018-06-14T00:17:55.941Z,76.67
2018-06-14T00:20:25.813Z,76.88
2018-06-14T00:22:55.944Z,76.92
2018-06-14T00:25:26.715Z,77.11
2018-06-14T00:27:56.428Z,76.72
2018-06-14T00:30:27.291Z,77.93
2018-06-14T00:32:56.957Z,77.31
2018-06-14T00:35:27.366Z,77.73
2018-06-14T00:37:57.760Z,76.80
2018-06-14T00:40:27.634Z,76.88
2018-06-14T00:42:57.491Z,76.55
2018-06-14T00:45:27.258Z,76.93
2018-06-14T00:47:56.961Z,77.87
2018-06-14T00:50:26.666Z,77.69
2018-06-14T00:52:57.861Z,77.41
2018-06-14T00:55:27.606Z,76.32
2018-06-14T00:57:58.768Z,76.98
2018-06-14T01:00:28.453Z,77.11
2018-06-14T01:02:58.391Z,77.27
2018-06-14T01:05:28.385Z,77.33
2018-06-14T01:07:58.695Z,77.53
2018-06-14T01:10:28.457Z,77.46
2018-06-14T01:12:58.394Z,77.41
2018-06-14T01:15:32.428Z,77.58
2018-06-14T01:18:02.593Z,77.05
2018-06-14T01:20:32.487Z,77.70
2018-06-14T01:23:02.507Z,78.43
2018-06-14T01:25:32.183Z,79.33
2018-06-14T01:28:02.611Z,79.68
2018-06-14T01:30:33.306Z,79.80
2018-06-14T01:33:03.373Z,79.65
2018-06-14T01:35:33.310Z,79.95
2018-06-14T01:38:15.196Z,80.05
2018-06-14T01:40:45.080Z,80.11
2018-06-14T01:43:14.745Z,80.09
2018-06-14T01:45:44.872Z,80.56
2018-06-14T01:48:14.599Z,81.26
2018-06-14T01:50:44.251Z,81.00
2018-06-14T01:53:14.076Z,79.97
2018-06-14T01:55:43.815Z,80.05
2018-06-14T01:58:13.502Z,79.94
2018-06-14T02:00:44.974Z,79.97
2018-06-14T02:03:14.711Z,79.92
2018-06-14T02:05:44.436Z,80.17
2018-06-14T02:08:14.449Z,80.00
2018-06-14T02:10:44.360Z,79.47
2018-06-14T02:13:14.105Z,79.56
2018-06-14T02:15:47.083Z,79.48
2018-06-14T02:18:17.735Z,79.95
2018-06-14T02:20:48.387Z,79.97
2018-06-14T02:23:18.518Z,79.83
2018-06-14T02:25:48.601Z,80.50
2018-06-14T02:28:18.316Z,80.08
2018-06-14T02:30:49.068Z,79.97
2018-06-14T02:33:19.285Z,80.14
2018-06-14T02:35:49.227Z,79.90
2018-06-14T02:38:21.716Z,80.34
2018-06-14T02:40:53.629Z,80.16
2018-06-14T02:43:23.347Z,80.25
2018-06-14T02:45:53.689Z,80.33
2018-06-14T02:48:24.633Z,80.58
2018-06-14T02:50:55.265Z,80.22
2018-06-14T02:53:25.033Z,80.67
2018-06-14T02:55:56.397Z,80.81
2018-06-14T02:58:26.190Z,80.79
2018-06-14T03:00:55.823Z,80.51
2018-06-14T03:03:26.220Z,80.47
2018-06-14T03:05:59.700Z,80.36
2018-06-14T03:08:31.093Z,79.93
2018-06-14T03:11:01.235Z,80.52
2018-06-14T03:13:30.914Z,80.77
2018-06-14T03:16:04.231Z,81.33
2018-06-14T03:18:35.056Z,80.76
2018-06-14T03:21:04.824Z,80.36
2018-06-14T03:26:28.888Z,81.02
2018-06-14T03:28:58.500Z,81.17
2018-06-14T03:31:28.253Z,80.79
2018-06-14T03:33:57.913Z,81.23
2018-06-14T03:36:32.682Z,81.41
2018-06-14T03:39:02.968Z,80.57
2018-06-14T03:41:32.673Z,80.49
2018-06-14T03:44:02.388Z,81.09
2018-06-14T03:46:37.197Z,81.34
2018-06-14T03:49:06.916Z,81.47
2018-06-14T03:51:37.222Z,81.73
2018-06-14T03:54:07.112Z,81.66
2018-06-14T03:56:37.295Z,81.74
2018-06-14T03:59:07.304Z,81.50
2018-06-14T04:01:37.348Z,81.71
2018-06-14T04:04:09.642Z,81.59
2018-06-14T04:06:39.647Z,81.45
2018-06-14T04:09:12.133Z,81.28
2018-06-14T04:11:41.844Z,81.64
2018-06-14T04:14:12.295Z,81.37
2018-06-14T04:16:42.038Z,81.78
2018-06-14T04:19:11.992Z,81.62
2018-06-14T04:21:41.655Z,81.49
2018-06-14T04:24:11.488Z,81.51
2018-06-14T04:26:41.220Z,81.29
2018-06-14T04:29:11.180Z,81.32
2018-06-14T04:31:40.807Z,80.66
2018-06-14T04:34:10.596Z,80.50
2018-06-14T04:36:42.749Z,79.80
2018-06-14T04:39:17.692Z,80.28
2018-06-14T04:41:53.365Z,80.20
2018-06-14T04:44:25.488Z,79.91
2018-06-14T04:47:04.795Z,79.58
2018-06-14T04:49:34.574Z,79.05
2018-06-14T04:52:07.681Z,79.30
2018-06-14T04:54:38.276Z,79.21
2018-06-14T04:57:08.994Z,79.01
2018-06-14T04:59:40.116Z,79.45
2018-06-14T05:02:10.329Z,79.59
2018-06-14T05:04:41.004Z,79.48
2018-06-14T05:07:12.205Z,77.60
2018-06-14T05:09:41.853Z,77.63
2018-06-14T05:12:12.928Z,76.57
2018-06-14T05:14:44.373Z,77.31
2018-06-14T05:17:14.287Z,76.72
2018-06-14T05:19:46.341Z,76.50
2018-06-14T05:22:16.175Z,76.05
2018-06-14T05:24:46.231Z,75.70
2018-06-14T05:27:16.400Z,75.05
2018-06-14T05:29:46.375Z,74.50
2018-06-14T05:32:16.286Z,74.91
2018-06-14T05:34:45.919Z,75.39
2018-06-14T05:37:15.606Z,74.96
2018-06-14T05:39:45.263Z,74.04
2018-06-14T05:42:14.925Z,72.43
2018-06-14T05:44:45.180Z,72.42
2018-06-14T05:47:15.075Z,72.32
2018-06-14T05:49:44.766Z,73.03
2018-06-14T05:52:14.758Z,71.05
2018-06-14T05:54:45.228Z,70.74
2018-06-14T05:57:15.311Z,70.99
2018-06-14T05:59:46.140Z,70.94
2018-06-14T06:02:15.766Z,68.93
2018-06-14T06:04:45.850Z,68.76
2018-06-14T06:07:15.730Z,70.02
2018-06-14T06:09:45.992Z,68.78
2018-06-14T06:12:15.804Z,68.61
2018-06-14T06:14:45.503Z,68.48
2018-06-14T06:17:15.883Z,69.29
2018-06-14T06:19:46.175Z,68.25
2018-06-14T06:22:15.904Z,68.54
2018-06-14T06:24:47.191Z,67.77
2018-06-14T06:27:17.925Z,67.72
2018-06-14T06:29:47.683Z,67.38
2018-06-14T06:32:19.484Z,67.56
2018-06-14T06:34:49.749Z,68.83
2018-06-14T06:37:19.636Z,67.20
2018-06-14T06:39:49.808Z,66.35
2018-06-14T06:42:21.932Z,67.17
2018-06-14T06:44:53.309Z,65.41
2018-06-14T06:47:25.291Z,67.89
2018-06-14T06:49:57.401Z,66.83
2018-06-14T06:52:27.128Z,66.33
2018-06-14T06:54:57.420Z,62.77
2018-06-14T06:57:27.525Z,61.01
2018-06-14T06:59:57.341Z,60.14
2018-06-14T07:02:27.314Z,60.44
2018-06-14T07:04:58.880Z,56.24
2018-06-14T07:07:29.343Z,58.25
2018-06-14T07:10:03.343Z,55.88
2018-06-14T07:12:34.800Z,57.05
2018-06-14T07:15:04.635Z,54.19
2018-06-14T07:17:37.807Z,53.99
2018-06-14T07:20:09.595Z,51.15
2018-06-14T07:22:39.365Z,52.98
2018-06-14T07:25:09.971Z,47.96
2018-06-14T07:27:43.138Z,47.62
2018-06-14T07:30:15.383Z,46.54
2018-06-14T07:32:47.404Z,49.37
2018-06-14T07:35:18.019Z,51.83
2018-06-14T07:37:48.843Z,53.51
2018-06-14T07:40:18.560Z,46.45
2018-06-14T07:42:49.271Z,45.62
2018-06-14T07:45:19.284Z,50.23
2018-06-14T07:47:52.077Z,47.31
2018-06-14T07:55:52.453Z,46.93
2018-06-14T07:58:22.919Z,45.77
2018-06-14T08:00:53.857Z,47.58
2018-06-14T08:03:23.475Z,45.83
2018-06-14T08:05:54.063Z,45.35
2018-06-14T08:08:24.306Z,43.02
2018-06-14T08:10:54.871Z,42.84
2018-06-14T08:13:25.402Z,42.87
2018-06-14T08:15:56.231Z,45.23
2018-06-14T08:18:25.859Z,44.06
2018-06-14T08:20:56.092Z,43.49
2018-06-14T08:23:27.537Z,44.15
2018-06-14T08:25:59.296Z,44.82
2018-06-14T08:28:30.368Z,44.07
2018-06-14T08:31:01.748Z,46.50
2018-06-14T08:33:37.745Z,41.95
2018-06-14T08:36:08.286Z,40.09
2018-06-14T08:38:39.102Z,42.29
2018-06-14T08:41:10.108Z,43.96
2018-06-14T08:43:41.654Z,44.44
2018-06-14T08:46:12.060Z,43.22
2018-06-14T08:48:43.789Z,42.94
2018-06-14T08:51:17.549Z,42.38
2018-06-14T08:53:48.480Z,41.12
2018-06-14T08:56:19.226Z,43.10
2018-06-14T08:58:51.551Z,44.04
2018-06-14T09:01:21.782Z,40.55
2018-06-14T09:03:52.656Z,42.17
2018-06-14T09:06:22.383Z,42.00
2018-06-14T09:08:53.614Z,44.42
2018-06-14T09:11:23.921Z,43.93
2018-06-14T09:13:58.635Z,43.29
2018-06-14T09:16:33.966Z,40.87
2018-06-14T09:19:05.165Z,41.77
2018-06-14T09:21:37.431Z,41.04
2018-06-14T09:24:08.904Z,42.60
2018-06-14T09:26:41.300Z,46.48
2018-06-14T09:29:12.855Z,43.30
2018-06-14T09:31:44.497Z,43.35
2018-06-14T09:34:14.486Z,44.32
2018-06-14T09:36:45.821Z,44.18
2018-06-14T09:39:15.594Z,44.12
2018-06-14T09:41:47.220Z,44.42
2018-06-14T09:44:17.142Z,45.72
2018-06-14T09:46:47.627Z,42.97
2018-06-14T09:49:18.392Z,43.43
2018-06-14T09:51:48.898Z,40.45
2018-06-14T09:54:18.572Z,41.20
2018-06-14T09:56:48.395Z,41.89
2018-06-14T09:59:18.884Z,39.95
2018-06-14T10:01:48.693Z,40.07
2018-06-14T10:04:18.491Z,39.20
2018-06-14T10:06:48.562Z,38.61
2018-06-14T10:09:21.080Z,41.97
2018-06-14T10:11:51.423Z,37.82
2018-06-14T10:14:26.326Z,37.74
2018-06-14T10:16:58.208Z,34.64
2018-06-14T10:19:28.265Z,36.49
2018-06-14T10:22:03.416Z,38.61
2018-06-14T10:24:33.756Z,35.87
2018-06-14T10:27:04.090Z,38.31
2018-06-14T10:29:34.552Z,36.31
2018-06-14T10:32:04.800Z,36.56
2018-06-14T10:34:36.748Z,36.93
2018-06-14T10:37:06.604Z,36.48
2018-06-14T10:39:37.651Z,37.82
2018-06-14T10:42:08.039Z,37.51
2018-06-14T10:44:38.836Z,38.14
2018-06-14T10:47:10.738Z,36.33
2018-06-14T10:49:40.713Z,36.25
2018-06-14T10:52:11.469Z,35.48
2018-06-14T10:54:41.337Z,32.74
2018-06-14T10:57:11.089Z,28.96
2018-06-14T10:59:41.119Z,27.78
2018-06-14T11:02:13.122Z,29.72
2018-06-14T11:04:49.348Z,31.77
2018-06-14T11:07:23.185Z,33.59
2018-06-14T11:09:54.023Z,31.23
2018-06-14T11:12:24.324Z,30.92
2018-06-14T11:14:54.461Z,30.72
2018-06-14T11:17:25.167Z,31.19
2018-06-14T11:19:55.459Z,30.67
2018-06-14T11:22:25.850Z,30.28
2018-06-14T11:25:00.758Z,27.41
2018-06-14T11:27:31.428Z,27.91
2018-06-14T11:30:04.452Z,27.36
2018-06-14T11:32:35.960Z,30.23
2018-06-14T11:35:17.312Z,31.12
2018-06-14T11:37:47.466Z,29.68
2018-06-14T11:40:17.737Z,26.59
2018-06-14T11:42:47.607Z,24.72
2018-06-14T11:45:17.739Z,23.17
2018-06-14T11:47:48.459Z,23.40
2018-06-14T11:50:18.413Z,21.68
2018-06-14T11:52:48.493Z,22.54
2018-06-14T11:55:18.420Z,22.11
2018-06-14T11:57:48.782Z,21.90
2018-06-14T12:00:29.264Z,19.94
2018-06-14T12:02:59.176Z,19.70
2018-06-14T12:05:29.244Z,18.66
2018-06-14T12:08:02.763Z,20.61
2018-06-14T12:10:34.091Z,23.91
2018-06-14T12:13:06.543Z,24.16
2018-06-14T12:15:39.289Z,22.76
2018-06-14T12:18:10.019Z,24.38
2018-06-14T12:20:40.345Z,23.83
2018-06-14T12:23:11.837Z,23.10
2018-06-14T12:25:44.905Z,24.14
2018-06-14T12:28:14.905Z,24.42
2018-06-14T12:30:48.707Z,23.45
2018-06-14T12:33:19.330Z,24.63
2018-06-14T12:35:51.407Z,23.17
2018-06-14T12:38:21.538Z,22.08
2018-06-14T12:40:52.357Z,22.72
2018-06-14T12:43:23.356Z,24.23
2018-06-14T12:45:54.076Z,25.06
2018-06-14T12:48:24.246Z,29.19
2018-06-14T12:50:59.711Z,30.22
2018-06-14T12:53:30.324Z,30.37
2018-06-14T12:56:01.298Z,33.06
2018-06-14T12:58:33.499Z,31.68
2018-06-14T13:01:06.347Z,29.68
2018-06-14T13:03:37.618Z,28.97
2018-06-14T13:06:08.002Z,30.14
2018-06-14T13:08:41.169Z,32.38
2018-06-14T13:11:11.984Z,28.69
2018-06-14T13:13:41.798Z,25.56
2018-06-14T13:16:12.898Z,23.92
2018-06-14T13:18:46.190Z,22.30
2018-06-14T13:21:20.097Z,21.15
2018-06-14T13:23:51.674Z,18.45
2018-06-14T13:26:22.058Z,18.23
2018-06-14T13:28:52.717Z,20.24
2018-06-14T13:31:26.107Z,19.20
2018-06-14T13:33:56.541Z,19.62
2018-06-14T13:36:28.108Z,23.05
2018-06-14T13:38:57.945Z,26.95
2018-06-14T13:44:13.436Z,31.93
2018-06-14T13:46:45.362Z,31.75
2018-06-14T13:49:17.169Z,31.97
2018-06-14T13:51:50.715Z,30.31
2018-06-14T13:54:23.575Z,29.54
2018-06-14T13:56:54.405Z,30.24
2018-06-14T13:59:24.280Z,27.60
2018-06-14T14:01:54.244Z,24.90
2018-06-14T14:04:28.309Z,22.48
2018-06-14T14:07:05.202Z,21.03
2018-06-14T14:09:36.685Z,21.75
2018-06-14T14:12:07.503Z,21.57
2018-06-14T14:14:37.411Z,25.14
2018-06-14T14:17:08.792Z,20.50
2018-06-14T14:19:44.702Z,19.38
2018-06-14T14:22:16.743Z,18.12
2018-06-14T14:24:49.327Z,18.51
2018-06-14T14:27:20.841Z,19.90
2018-06-14T14:29:52.227Z,19.04
2018-06-14T14:32:24.884Z,18.50
2018-06-14T14:34:56.459Z,19.50
2018-06-14T14:37:28.437Z,20.23
2018-06-14T14:39:59.159Z,19.20
2018-06-14T14:42:30.198Z,20.27
2018-06-14T14:45:01.182Z,19.60
2018-06-14T14:47:31.465Z,20.57
2018-06-14T14:50:03.228Z,19.41
2018-06-14T14:52:36.175Z,20.33
2018-06-14T14:55:07.111Z,19.24
2018-06-14T14:57:38.138Z,20.93
2018-06-14T15:00:14.995Z,19.62
2018-06-14T15:02:50.640Z,19.57
2018-06-14T15:05:24.758Z,22.10
2018-06-14T15:07:57.551Z,22.78
2018-06-14T15:10:28.333Z,21.84
2018-06-14T15:13:02.574Z,22.23
2018-06-14T15:15:38.303Z,21.05
2018-06-14T15:18:10.192Z,20.32
2018-06-14T15:20:43.470Z,21.10
2018-06-14T15:23:17.535Z,21.77
2018-06-14T15:25:47.781Z,20.66
2018-06-14T15:28:29.706Z,20.76
2018-06-14T15:31:02.275Z,22.24
2018-06-14T15:33:34.096Z,22.42
2018-06-14T15:36:09.891Z,23.79
2018-06-14T15:38:43.584Z,26.97
2018-06-14T15:41:16.646Z,29.56
2018-06-14T15:43:47.321Z,30.88
2018-06-14T15:46:32.789Z,33.14
2018-06-14T15:49:06.232Z,32.64
2018-06-14T15:51:38.787Z,34.04
2018-06-14T15:54:12.790Z,34.47
2018-06-14T15:56:43.684Z,35.09
2018-06-14T15:59:16.305Z,34.93
2018-06-14T16:01:49.383Z,34.54
2018-06-14T16:04:20.312Z,33.77
2018-06-14T16:06:50.852Z,34.51
2018-06-14T16:09:20.915Z,34.82
2018-06-14T16:11:53.778Z,35.02
2018-06-14T16:14:26.705Z,34.31
2018-06-14T16:17:05.451Z,34.73
2018-06-14T16:19:39.974Z,35.02
2018-06-14T16:22:21.198Z,35.14
2018-06-14T16:24:53.167Z,35.38
2018-06-14T16:27:38.694Z,36.51
2018-06-14T16:30:17.931Z,35.76
2018-06-14T16:32:50.671Z,37.41
2018-06-14T16:35:21.915Z,35.82
2018-06-14T16:37:52.092Z,38.79
2018-06-14T16:40:22.413Z,36.07
2018-06-14T16:42:59.257Z,36.80
2018-06-14T16:45:33.710Z,36.22
2018-06-14T16:48:05.537Z,39.57
2018-06-14T16:50:36.594Z,38.96
2018-06-14T16:53:07.823Z,37.43
2018-06-14T16:55:39.644Z,37.80
2018-06-14T16:58:16.494Z,36.84
2018-06-14T17:00:47.281Z,36.97
2018-06-14T17:03:18.310Z,38.51
2018-06-14T17:05:50.431Z,40.33
2018-06-14T17:08:21.008Z,38.80
2018-06-14T17:10:51.511Z,38.81
2018-06-14T17:13:27.151Z,39.47
2018-06-14T17:15:59.373Z,42.15
2018-06-14T17:18:37.177Z,40.36
2018-06-14T17:21:09.369Z,43.83
2018-06-14T17:23:43.408Z,42.65
2018-06-14T17:26:15.345Z,40.38
2018-06-14T17:28:45.895Z,43.94
2018-06-14T17:31:20.837Z,45.75
2018-06-14T17:33:55.272Z,43.23
2018-06-14T17:36:32.443Z,42.89
2018-06-14T17:39:02.525Z,43.84
2018-06-14T17:41:32.557Z,44.69
2018-06-14T17:44:05.108Z,45.70
2018-06-14T17:46:41.749Z,46.47
2018-06-14T17:49:14.378Z,49.24
2018-06-14T17:51:45.818Z,46.62
2018-06-14T17:54:16.004Z,49.08
2018-06-14T17:56:55.423Z,46.98
2018-06-14T17:59:33.233Z,47.42
2018-06-14T18:02:04.431Z,47.13
2018-06-14T18:04:36.364Z,46.87
2018-06-14T18:07:11.043Z,46.61
2018-06-14T18:09:43.326Z,46.55
2018-06-14T18:12:15.321Z,47.69
2018-06-14T18:14:46.352Z,47.79
2018-06-14T18:17:17.549Z,47.06
2018-06-14T18:19:54.432Z,48.21
2018-06-14T18:22:26.670Z,47.34
2018-06-14T18:25:01.087Z,47.41
2018-06-14T18:27:31.238Z,48.70
2018-06-14T18:30:04.851Z,48.62
2018-06-14T18:32:37.463Z,49.43
2018-06-14T18:35:10.390Z,50.18
2018-06-14T18:37:53.535Z,50.86
2018-06-14T18:40:34.233Z,51.12
2018-06-14T18:43:22.204Z,51.56
2018-06-14T18:45:55.200Z,51.66
2018-06-14T18:48:29.329Z,51.23
2018-06-14T18:51:04.530Z,51.30
2018-06-14T18:53:47.246Z,52.08
2018-06-14T18:56:24.171Z,52.42
2018-06-14T18:58:57.233Z,53.00
2018-06-14T19:01:28.018Z,53.23
2018-06-14T19:04:03.866Z,54.38
2018-06-14T19:06:36.904Z,53.57
2018-06-14T19:09:14.028Z,53.06
2018-06-14T19:11:47.894Z,54.77
2018-06-14T19:14:20.630Z,54.28
2018-06-14T19:16:54.777Z,54.80
2018-06-14T19:19:28.190Z,54.43
2018-06-14T19:21:58.171Z,57.29
2018-06-14T19:24:28.642Z,55.70
2018-06-14T19:26:59.542Z,55.78
2018-06-14T19:29:30.591Z,57.34
2018-06-14T19:32:03.373Z,57.44
2018-06-14T19:34:34.815Z,58.90
2018-06-14T19:37:09.271Z,57.37
2018-06-14T19:39:41.687Z,59.37
2018-06-14T19:42:15.464Z,60.43
2018-06-14T19:44:48.651Z,62.39
2018-06-14T19:47:21.921Z,62.02
2018-06-14T19:50:05.888Z,63.04
2018-06-14T19:52:41.110Z,62.07
2018-06-14T19:55:15.100Z,63.69
2018-06-14T19:57:47.341Z,64.38
2018-06-14T20:00:19.397Z,65.67
2018-06-14T20:02:55.320Z,66.51
2018-06-14T20:05:28.717Z,66.95
2018-06-14T20:08:05.800Z,67.81
2018-06-14T20:10:38.405Z,68.24
2018-06-14T20:13:11.060Z,68.33
2018-06-14T20:15:46.197Z,68.65
2018-06-14T20:18:19.595Z,69.16
2018-06-14T20:20:49.965Z,69.08
2018-06-14T20:23:26.196Z,69.16
2018-06-14T20:26:00.077Z,69.65
2018-06-14T20:28:33.717Z,70.25
2018-06-14T20:31:05.909Z,70.04
2018-06-14T20:33:37.094Z,70.79
2018-06-14T20:36:09.512Z,71.03
2018-06-14T20:38:41.260Z,71.13
2018-06-14T20:41:13.570Z,71.16
2018-06-14T20:43:48.608Z,71.10
2018-06-14T20:46:20.926Z,71.31
2018-06-14T20:48:55.157Z,71.46
2018-06-14T20:51:28.679Z,71.78
2018-06-14T20:54:02.470Z,72.41
2018-06-14T20:56:33.968Z,72.62
2018-06-14T20:59:06.103Z,72.63
2018-06-14T21:01:46.549Z,72.77
2018-06-14T21:04:18.679Z,72.96
2018-06-14T21:06:57.084Z,72.63
2018-06-14T21:09:30.596Z,73.05
2018-06-14T21:12:09.142Z,73.12
2018-06-14T21:14:45.789Z,73.04
2018-06-14T21:17:22.107Z,73.02
2018-06-14T21:20:00.058Z,73.32
2018-06-14T21:22:36.684Z,73.22
2018-06-14T21:25:08.192Z,73.86
2018-06-14T21:27:42.101Z,73.61
2018-06-14T21:30:14.353Z,74.33
2018-06-14T21:32:48.271Z,73.83
2018-06-14T21:35:22.108Z,73.46
2018-06-14T21:37:56.574Z,73.57
2018-06-14T21:40:37.277Z,72.91
2018-06-14T21:43:19.622Z,72.75
2018-06-14T21:45:53.818Z,72.84
2018-06-14T21:48:32.094Z,72.95
2018-06-14T21:51:27.380Z,72.48
2018-06-14T21:54:02.829Z,72.80
2018-06-14T21:56:33.056Z,72.83
2018-06-14T21:59:04.394Z,73.60
2018-06-14T22:01:34.733Z,73.36
2018-06-14T22:04:09.166Z,74.05
2018-06-14T22:06:40.284Z,73.79
2018-06-14T22:09:10.424Z,74.76
2018-06-14T22:11:42.032Z,75.00
2018-06-14T22:14:14.412Z,75.05
2018-06-14T22:16:45.266Z,75.32
2018-06-14T22:19:15.475Z,75.74
2018-06-14T22:21:58.691Z,75.41
2018-06-14T22:24:29.700Z,76.22
2018-06-14T22:27:00.198Z,75.43
2018-06-14T22:29:31.186Z,75.70
2018-06-14T22:32:05.633Z,75.36
2018-06-14T22:34:48.586Z,75.74
2018-06-14T22:37:18.332Z,75.90
2018-06-14T22:39:49.110Z,76.30
2018-06-14T22:42:20.735Z,76.13
2018-06-14T22:44:51.187Z,76.54
2018-06-14T22:47:25.975Z,76.13
2018-06-14T22:49:56.084Z,76.35
2018-06-14T22:53:02.402Z,76.74
2018-06-14T22:55:35.160Z,76.58
2018-06-14T22:58:06.887Z,76.74
2018-06-14T23:01:54.646Z,77.41
2018-06-14T23:04:26.941Z,77.03
2018-06-14T23:07:03.177Z,76.86
2018-06-14T23:10:42.680Z,76.84
2018-06-14T23:13:14.073Z,77.64
2018-06-14T23:15:44.735Z,77.34
2018-06-14T23:18:20.219Z,77.91
2018-06-14T23:20:51.861Z,78.13
2018-06-14T23:23:22.214Z,77.74
2018-06-14T23:25:53.638Z,78.05
2018-06-14T23:28:23.388Z,77.93
2018-06-14T23:30:55.313Z,78.20
2018-06-14T23:33:26.806Z,78.51
2018-06-14T23:35:56.580Z,78.77
2018-06-14T23:38:27.230Z,78.55
2018-06-14T23:40:56.916Z,78.28
2018-06-14T23:43:29.943Z,78.51
2018-06-14T23:46:00.181Z,78.47
2018-06-14T23:48:30.120Z,78.74
2018-06-14T23:51:02.310Z,78.87
2018-06-14T23:53:32.410Z,78.07
2018-06-14T23:56:02.042Z,78.42
2018-06-14T23:58:31.765Z,78.31
